sensor_id;sensor_type;location;lat;lon;timestamp;pressure;altitude;pressure_sealevel;temperature;humidity
56006;BME280;41888;44.696;10.522;2023-04-30T00:02:00;100412.69;;;14.96;100.00
56006;BME280;41888;44.696;10.522;2023-04-30T00:04:26;100398.81;;;14.88;100.00
56006;BME280;41888;44.696;10.522;2023-04-30T00:06:52;100399.28;;;14.85;100.00
56006;BME280;41888;44.696;10.522;2023-04-30T00:09:19;100399.84;;;14.87;100.00
56006;BME280;41888;44.696;10.522;2023-04-30T00:11:45;100397.16;;;14.87;100.00
56006;BME280;41888;44.696;10.522;2023-04-30T00:14:11;100400.91;;;14.86;100.00
56006;BME280;41888;44.696;10.522;2023-04-30T00:16:37;100400.78;;;14.80;100.00
56006;BME280;41888;44.696;10.522;2023-04-30T00:19:03;100395.56;;;14.74;100.00
56006;BME280;41888;44.696;10.522;2023-04-30T00:21:29;100395.19;;;14.70;100.00
56006;BME280;41888;44.696;10.522;2023-04-30T00:23:56;100398.34;;;14.67;100.00
56006;BME280;41888;44.696;10.522;2023-04-30T00:26:22;100398.44;;;14.61;100.00
56006;BME280;41888;44.696;10.522;2023-04-30T00:28:48;100391.59;;;14.53;100.00
56006;BME280;41888;44.696;10.522;2023-04-30T00:31:14;100389.22;;;14.45;100.00
56006;BME280;41888;44.696;10.522;2023-04-30T00:33:40;100382.72;;;14.41;100.00
56006;BME280;41888;44.696;10.522;2023-04-30T00:36:06;100386.44;;;14.40;100.00
56006;BME280;41888;44.696;10.522;2023-04-30T00:38:33;100381.97;;;14.34;100.00
56006;BME280;41888;44.696;10.522;2023-04-30T00:40:59;100381.56;;;14.37;100.00
56006;BME280;41888;44.696;10.522;2023-04-30T00:43:25;100381.16;;;14.33;100.00
56006;BME280;41888;44.696;10.522;2023-04-30T00:45:52;100379.16;;;14.29;100.00
56006;BME280;41888;44.696;10.522;2023-04-30T00:48:18;100378.59;;;14.27;100.00
56006;BME280;41888;44.696;10.522;2023-04-30T00:50:44;100380.56;;;14.20;100.00
56006;BME280;41888;44.696;10.522;2023-04-30T00:53:11;100383.53;;;14.12;100.00
56006;BME280;41888;44.696;10.522;2023-04-30T00:55:39;100373.78;;;14.06;100.00
56006;BME280;41888;44.696;10.522;2023-04-30T00:58:07;100371.66;;;14.08;100.00
56006;BME280;41888;44.696;10.522;2023-04-30T01:00:33;100371.78;;;14.13;100.00
56006;BME280;41888;44.696;10.522;2023-04-30T01:03:00;100381.16;;;14.22;100.00
56006;BME280;41888;44.696;10.522;2023-04-30T01:05:26;100369.75;;;14.26;100.00
56006;BME280;41888;44.696;10.522;2023-04-30T01:07:54;100373.13;;;14.22;100.00
56006;BME280;41888;44.696;10.522;2023-04-30T01:10:25;100366.47;;;14.24;100.00
56006;BME280;41888;44.696;10.522;2023-04-30T01:13:15;100367.50;;;14.23;100.00
56006;BME280;41888;44.696;10.522;2023-04-30T01:18:55;100374.19;;;14.32;100.00
56006;BME280;41888;44.696;10.522;2023-04-30T01:21:22;100382.22;;;14.32;100.00
56006;BME280;41888;44.696;10.522;2023-04-30T01:29:39;100385.66;;;14.10;100.00
56006;BME280;41888;44.696;10.522;2023-04-30T01:32:07;100390.66;;;14.06;100.00
56006;BME280;41888;44.696;10.522;2023-04-30T01:34:34;100388.88;;;14.12;100.00
56006;BME280;41888;44.696;10.522;2023-04-30T01:45:54;100398.94;;;13.86;100.00
56006;BME280;41888;44.696;10.522;2023-04-30T01:53:47;100395.41;;;13.74;100.00
56006;BME280;41888;44.696;10.522;2023-04-30T01:56:24;100387.25;;;13.69;100.00
56006;BME280;41888;44.696;10.522;2023-04-30T01:58:52;100392.53;;;13.58;100.00
56006;BME280;41888;44.696;10.522;2023-04-30T02:01:30;100393.38;;;13.58;100.00
56006;BME280;41888;44.696;10.522;2023-04-30T02:03:57;100394.41;;;13.57;100.00
56006;BME280;41888;44.696;10.522;2023-04-30T02:06:24;100384.75;;;13.56;100.00
56006;BME280;41888;44.696;10.522;2023-04-30T02:08:53;100384.47;;;13.46;100.00
56006;BME280;41888;44.696;10.522;2023-04-30T02:11:20;100378.69;;;13.31;100.00
56006;BME280;41888;44.696;10.522;2023-04-30T02:13:49;100393.44;;;13.33;100.00
56006;BME280;41888;44.696;10.522;2023-04-30T02:16:15;100389.22;;;13.26;100.00
56006;BME280;41888;44.696;10.522;2023-04-30T02:18:41;100384.91;;;13.25;100.00
56006;BME280;41888;44.696;10.522;2023-04-30T02:21:08;100384.03;;;13.31;100.00
56006;BME280;41888;44.696;10.522;2023-04-30T02:23:34;100383.72;;;13.21;100.00
56006;BME280;41888;44.696;10.522;2023-04-30T02:26:00;100379.56;;;13.25;100.00
56006;BME280;41888;44.696;10.522;2023-04-30T02:28:27;100377.78;;;13.19;100.00
56006;BME280;41888;44.696;10.522;2023-04-30T02:30:53;100379.63;;;13.18;100.00
56006;BME280;41888;44.696;10.522;2023-04-30T02:33:19;100386.69;;;13.13;100.00
56006;BME280;41888;44.696;10.522;2023-04-30T02:35:45;100389.16;;;13.14;100.00
56006;BME280;41888;44.696;10.522;2023-04-30T02:38:12;100393.75;;;13.25;100.00
56006;BME280;41888;44.696;10.522;2023-04-30T02:40:39;100387.94;;;13.28;100.00
56006;BME280;41888;44.696;10.522;2023-04-30T02:43:05;100390.75;;;13.33;100.00
56006;BME280;41888;44.696;10.522;2023-04-30T02:45:31;100397.38;;;13.31;100.00
56006;BME280;41888;44.696;10.522;2023-04-30T02:47:58;100400.78;;;13.20;100.00
56006;BME280;41888;44.696;10.522;2023-04-30T02:50:24;100391.13;;;13.00;100.00
56006;BME280;41888;44.696;10.522;2023-04-30T02:52:50;100395.69;;;12.93;100.00
56006;BME280;41888;44.696;10.522;2023-04-30T02:55:16;100395.34;;;12.90;100.00
56006;BME280;41888;44.696;10.522;2023-04-30T02:57:43;100400.28;;;12.86;100.00
56006;BME280;41888;44.696;10.522;2023-04-30T03:00:09;100395.75;;;12.87;100.00
56006;BME280;41888;44.696;10.522;2023-04-30T03:02:35;100408.59;;;12.96;100.00
56006;BME280;41888;44.696;10.522;2023-04-30T03:05:03;100393.16;;;12.80;100.00
56006;BME280;41888;44.696;10.522;2023-04-30T03:07:30;100403.75;;;12.68;100.00
56006;BME280;41888;44.696;10.522;2023-04-30T03:09:56;100394.16;;;12.61;100.00
56006;BME280;41888;44.696;10.522;2023-04-30T03:12:22;100391.94;;;12.58;100.00
56006;BME280;41888;44.696;10.522;2023-04-30T03:14:48;100397.97;;;12.47;100.00
56006;BME280;41888;44.696;10.522;2023-04-30T03:17:14;100398.03;;;12.40;100.00
56006;BME280;41888;44.696;10.522;2023-04-30T03:19:41;100399.81;;;12.46;100.00
56006;BME280;41888;44.696;10.522;2023-04-30T03:22:07;100396.59;;;12.38;100.00
56006;BME280;41888;44.696;10.522;2023-04-30T03:24:34;100398.88;;;12.34;100.00
56006;BME280;41888;44.696;10.522;2023-04-30T03:27:00;100389.06;;;12.28;100.00
56006;BME280;41888;44.696;10.522;2023-04-30T03:29:26;100389.69;;;12.30;100.00
56006;BME280;41888;44.696;10.522;2023-04-30T03:31:52;100389.56;;;12.18;100.00
56006;BME280;41888;44.696;10.522;2023-04-30T03:34:19;100386.28;;;12.16;100.00
56006;BME280;41888;44.696;10.522;2023-04-30T03:36:45;100382.00;;;12.15;100.00
56006;BME280;41888;44.696;10.522;2023-04-30T03:39:11;100379.09;;;12.17;100.00
56006;BME280;41888;44.696;10.522;2023-04-30T03:41:37;100386.09;;;12.11;100.00
56006;BME280;41888;44.696;10.522;2023-04-30T03:44:04;100385.28;;;12.11;100.00
56006;BME280;41888;44.696;10.522;2023-04-30T03:46:30;100399.50;;;12.05;100.00
56006;BME280;41888;44.696;10.522;2023-04-30T03:48:56;100385.38;;;11.98;100.00
56006;BME280;41888;44.696;10.522;2023-04-30T03:51:22;100385.75;;;12.01;100.00
56006;BME280;41888;44.696;10.522;2023-04-30T03:53:49;100380.25;;;11.96;100.00
56006;BME280;41888;44.696;10.522;2023-04-30T03:56:15;100387.09;;;11.85;100.00
56006;BME280;41888;44.696;10.522;2023-04-30T03:58:41;100380.13;;;11.84;100.00
56006;BME280;41888;44.696;10.522;2023-04-30T04:01:07;100390.75;;;11.91;100.00
56006;BME280;41888;44.696;10.522;2023-04-30T04:03:34;100395.69;;;11.94;100.00
56006;BME280;41888;44.696;10.522;2023-04-30T04:06:00;100409.59;;;11.96;100.00
56006;BME280;41888;44.696;10.522;2023-04-30T04:08:27;100414.69;;;12.04;100.00
56006;BME280;41888;44.696;10.522;2023-04-30T04:10:53;100419.34;;;12.15;100.00
56006;BME280;41888;44.696;10.522;2023-04-30T04:13:19;100417.69;;;12.14;100.00
56006;BME280;41888;44.696;10.522;2023-04-30T04:15:45;100417.09;;;12.12;100.00
56006;BME280;41888;44.696;10.522;2023-04-30T04:18:11;100426.22;;;11.98;100.00
56006;BME280;41888;44.696;10.522;2023-04-30T04:20:37;100421.91;;;11.97;100.00
56006;BME280;41888;44.696;10.522;2023-04-30T04:23:03;100425.59;;;11.96;100.00
56006;BME280;41888;44.696;10.522;2023-04-30T04:25:30;100428.25;;;11.96;100.00
56006;BME280;41888;44.696;10.522;2023-04-30T04:27:56;100433.34;;;12.04;100.00
56006;BME280;41888;44.696;10.522;2023-04-30T04:30:22;100446.88;;;12.03;100.00
56006;BME280;41888;44.696;10.522;2023-04-30T04:32:48;100450.56;;;12.08;100.00
56006;BME280;41888;44.696;10.522;2023-04-30T04:35:18;100446.44;;;12.06;100.00
56006;BME280;41888;44.696;10.522;2023-04-30T04:37:45;100457.09;;;12.12;100.00
56006;BME280;41888;44.696;10.522;2023-04-30T04:40:11;100455.03;;;12.14;100.00
56006;BME280;41888;44.696;10.522;2023-04-30T04:42:38;100463.41;;;12.18;100.00
56006;BME280;41888;44.696;10.522;2023-04-30T04:45:08;100456.69;;;12.15;100.00
56006;BME280;41888;44.696;10.522;2023-04-30T04:47:34;100461.56;;;12.18;100.00
56006;BME280;41888;44.696;10.522;2023-04-30T04:50:01;100462.13;;;12.27;100.00
56006;BME280;41888;44.696;10.522;2023-04-30T04:52:27;100465.19;;;12.31;100.00
56006;BME280;41888;44.696;10.522;2023-04-30T04:54:54;100459.69;;;12.25;100.00
56006;BME280;41888;44.696;10.522;2023-04-30T04:57:20;100463.34;;;12.31;100.00
56006;BME280;41888;44.696;10.522;2023-04-30T04:59:46;100461.69;;;12.37;100.00
56006;BME280;41888;44.696;10.522;2023-04-30T05:02:12;100466.44;;;12.28;100.00
56006;BME280;41888;44.696;10.522;2023-04-30T05:04:38;100475.63;;;12.32;100.00
56006;BME280;41888;44.696;10.522;2023-04-30T05:07:04;100465.56;;;12.34;100.00
56006;BME280;41888;44.696;10.522;2023-04-30T05:09:32;100468.41;;;12.39;100.00
56006;BME280;41888;44.696;10.522;2023-04-30T05:11:58;100468.44;;;12.33;100.00
56006;BME280;41888;44.696;10.522;2023-04-30T05:14:24;100462.13;;;12.27;100.00
56006;BME280;41888;44.696;10.522;2023-04-30T05:16:51;100469.25;;;12.40;100.00
56006;BME280;41888;44.696;10.522;2023-04-30T05:19:17;100465.38;;;12.36;100.00
56006;BME280;41888;44.696;10.522;2023-04-30T05:21:43;100471.28;;;12.38;100.00
56006;BME280;41888;44.696;10.522;2023-04-30T05:24:09;100472.69;;;12.47;100.00
56006;BME280;41888;44.696;10.522;2023-04-30T05:26:35;100471.59;;;12.54;100.00
56006;BME280;41888;44.696;10.522;2023-04-30T05:29:01;100471.22;;;12.51;100.00
56006;BME280;41888;44.696;10.522;2023-04-30T05:31:28;100473.59;;;12.59;100.00
56006;BME280;41888;44.696;10.522;2023-04-30T05:33:54;100472.84;;;12.52;100.00
56006;BME280;41888;44.696;10.522;2023-04-30T05:36:20;100471.94;;;12.64;100.00
56006;BME280;41888;44.696;10.522;2023-04-30T05:38:46;100470.41;;;12.75;100.00
56006;BME280;41888;44.696;10.522;2023-04-30T05:41:12;100469.66;;;13.18;100.00
56006;BME280;41888;44.696;10.522;2023-04-30T05:43:38;100484.75;;;13.85;100.00
56006;BME280;41888;44.696;10.522;2023-04-30T05:46:05;100477.69;;;13.72;100.00
56006;BME280;41888;44.696;10.522;2023-04-30T05:48:31;100481.34;;;14.08;100.00
56006;BME280;41888;44.696;10.522;2023-04-30T05:50:57;100471.66;;;14.43;100.00
56006;BME280;41888;44.696;10.522;2023-04-30T05:53:23;100478.13;;;14.89;100.00
56006;BME280;41888;44.696;10.522;2023-04-30T05:55:50;100475.72;;;14.46;100.00
56006;BME280;41888;44.696;10.522;2023-04-30T05:58:16;100479.59;;;14.61;100.00
56006;BME280;41888;44.696;10.522;2023-04-30T06:00:42;100480.88;;;14.29;100.00
56006;BME280;41888;44.696;10.522;2023-04-30T06:03:08;100486.50;;;14.09;100.00
56006;BME280;41888;44.696;10.522;2023-04-30T06:05:35;100487.94;;;13.93;100.00
56006;BME280;41888;44.696;10.522;2023-04-30T06:08:01;100487.13;;;14.23;100.00
56006;BME280;41888;44.696;10.522;2023-04-30T06:10:27;100480.94;;;14.11;100.00
56006;BME280;41888;44.696;10.522;2023-04-30T06:12:53;100490.94;;;14.15;100.00
56006;BME280;41888;44.696;10.522;2023-04-30T06:15:19;100488.81;;;13.87;100.00
56006;BME280;41888;44.696;10.522;2023-04-30T06:17:46;100482.31;;;13.83;100.00
56006;BME280;41888;44.696;10.522;2023-04-30T06:20:12;100488.16;;;13.92;100.00
56006;BME280;41888;44.696;10.522;2023-04-30T06:22:39;100489.09;;;14.16;100.00
56006;BME280;41888;44.696;10.522;2023-04-30T06:25:06;100488.69;;;14.01;100.00
56006;BME280;41888;44.696;10.522;2023-04-30T06:27:33;100481.97;;;14.10;100.00
56006;BME280;41888;44.696;10.522;2023-04-30T06:29:59;100492.38;;;14.29;100.00
56006;BME280;41888;44.696;10.522;2023-04-30T06:32:26;100487.47;;;14.45;100.00
56006;BME280;41888;44.696;10.522;2023-04-30T06:34:52;100489.50;;;14.31;100.00
56006;BME280;41888;44.696;10.522;2023-04-30T06:37:18;100494.09;;;14.42;100.00
56006;BME280;41888;44.696;10.522;2023-04-30T06:39:44;100489.47;;;14.61;100.00
56006;BME280;41888;44.696;10.522;2023-04-30T06:42:10;100484.59;;;14.58;100.00
56006;BME280;41888;44.696;10.522;2023-04-30T06:44:36;100487.97;;;14.53;100.00
56006;BME280;41888;44.696;10.522;2023-04-30T06:47:03;100490.31;;;14.31;100.00
56006;BME280;41888;44.696;10.522;2023-04-30T06:49:29;100495.50;;;14.45;100.00
56006;BME280;41888;44.696;10.522;2023-04-30T06:51:55;100500.03;;;14.44;100.00
56006;BME280;41888;44.696;10.522;2023-04-30T06:54:23;100499.94;;;14.51;100.00
56006;BME280;41888;44.696;10.522;2023-04-30T06:56:52;100503.38;;;14.40;100.00
56006;BME280;41888;44.696;10.522;2023-04-30T06:59:18;100502.88;;;14.31;100.00
56006;BME280;41888;44.696;10.522;2023-04-30T07:01:44;100497.03;;;14.52;100.00
56006;BME280;41888;44.696;10.522;2023-04-30T07:04:10;100504.88;;;14.35;100.00
56006;BME280;41888;44.696;10.522;2023-04-30T07:06:36;100506.31;;;14.38;100.00
56006;BME280;41888;44.696;10.522;2023-04-30T07:09:02;100509.03;;;14.61;100.00
56006;BME280;41888;44.696;10.522;2023-04-30T07:11:29;100514.75;;;14.53;100.00
56006;BME280;41888;44.696;10.522;2023-04-30T07:13:55;100504.53;;;14.73;100.00
56006;BME280;41888;44.696;10.522;2023-04-30T07:16:23;100506.91;;;15.05;100.00
56006;BME280;41888;44.696;10.522;2023-04-30T07:18:49;100515.22;;;15.38;100.00
56006;BME280;41888;44.696;10.522;2023-04-30T07:21:17;100509.59;;;15.28;100.00
56006;BME280;41888;44.696;10.522;2023-04-30T07:23:43;100506.66;;;15.18;100.00
56006;BME280;41888;44.696;10.522;2023-04-30T07:26:10;100508.31;;;15.19;100.00
56006;BME280;41888;44.696;10.522;2023-04-30T07:28:36;100507.59;;;15.23;100.00
56006;BME280;41888;44.696;10.522;2023-04-30T07:31:02;100510.53;;;15.22;100.00
56006;BME280;41888;44.696;10.522;2023-04-30T07:33:28;100506.19;;;15.44;100.00
56006;BME280;41888;44.696;10.522;2023-04-30T07:35:55;100503.50;;;15.44;100.00
56006;BME280;41888;44.696;10.522;2023-04-30T07:38:23;100508.78;;;15.04;100.00
56006;BME280;41888;44.696;10.522;2023-04-30T07:40:50;100516.00;;;15.04;100.00
56006;BME280;41888;44.696;10.522;2023-04-30T07:43:16;100512.16;;;15.23;100.00
56006;BME280;41888;44.696;10.522;2023-04-30T07:45:42;100514.50;;;15.31;100.00
56006;BME280;41888;44.696;10.522;2023-04-30T07:48:09;100511.72;;;15.38;100.00
56006;BME280;41888;44.696;10.522;2023-04-30T07:50:35;100512.38;;;15.45;100.00
56006;BME280;41888;44.696;10.522;2023-04-30T07:53:02;100513.31;;;15.50;100.00
56006;BME280;41888;44.696;10.522;2023-04-30T07:55:28;100516.25;;;15.60;100.00
56006;BME280;41888;44.696;10.522;2023-04-30T07:57:54;100515.44;;;15.37;100.00
56006;BME280;41888;44.696;10.522;2023-04-30T08:00:20;100514.84;;;15.46;100.00
56006;BME280;41888;44.696;10.522;2023-04-30T08:02:46;100515.19;;;15.27;100.00
56006;BME280;41888;44.696;10.522;2023-04-30T08:05:13;100512.97;;;15.35;100.00
56006;BME280;41888;44.696;10.522;2023-04-30T08:07:39;100513.69;;;15.42;100.00
56006;BME280;41888;44.696;10.522;2023-04-30T08:10:06;100508.41;;;15.71;100.00
56006;BME280;41888;44.696;10.522;2023-04-30T08:12:35;100509.69;;;15.80;100.00
56006;BME280;41888;44.696;10.522;2023-04-30T08:15:05;100509.28;;;15.99;100.00
56006;BME280;41888;44.696;10.522;2023-04-30T08:17:33;100507.56;;;15.93;100.00
56006;BME280;41888;44.696;10.522;2023-04-30T08:20:01;100509.91;;;15.90;100.00
56006;BME280;41888;44.696;10.522;2023-04-30T08:22:28;100519.69;;;15.96;100.00
56006;BME280;41888;44.696;10.522;2023-04-30T08:24:55;100514.81;;;16.21;100.00
56006;BME280;41888;44.696;10.522;2023-04-30T08:27:22;100509.53;;;16.55;100.00
56006;BME280;41888;44.696;10.522;2023-04-30T08:29:48;100518.84;;;16.35;100.00
56006;BME280;41888;44.696;10.522;2023-04-30T08:32:14;100514.69;;;16.44;100.00
56006;BME280;41888;44.696;10.522;2023-04-30T08:34:40;100512.25;;;16.71;100.00
56006;BME280;41888;44.696;10.522;2023-04-30T08:37:08;100508.38;;;17.12;100.00
56006;BME280;41888;44.696;10.522;2023-04-30T08:39:34;100514.44;;;17.24;100.00
56006;BME280;41888;44.696;10.522;2023-04-30T08:42:08;100512.66;;;17.13;100.00
56006;BME280;41888;44.696;10.522;2023-04-30T08:44:35;100515.44;;;17.18;100.00
56006;BME280;41888;44.696;10.522;2023-04-30T08:47:06;100517.47;;;17.45;100.00
56006;BME280;41888;44.696;10.522;2023-04-30T08:49:34;100509.41;;;17.28;100.00
56006;BME280;41888;44.696;10.522;2023-04-30T08:52:01;100510.31;;;17.34;100.00
56006;BME280;41888;44.696;10.522;2023-04-30T08:54:30;100519.56;;;17.43;100.00
56006;BME280;41888;44.696;10.522;2023-04-30T08:56:57;100529.94;;;17.34;100.00
56006;BME280;41888;44.696;10.522;2023-04-30T08:59:23;100524.66;;;17.06;100.00
56006;BME280;41888;44.696;10.522;2023-04-30T09:01:50;100521.22;;;17.10;100.00
56006;BME280;41888;44.696;10.522;2023-04-30T09:04:16;100518.31;;;17.12;100.00
56006;BME280;41888;44.696;10.522;2023-04-30T09:06:43;100520.41;;;16.93;100.00
56006;BME280;41888;44.696;10.522;2023-04-30T09:09:14;100516.75;;;17.16;100.00
56006;BME280;41888;44.696;10.522;2023-04-30T09:11:41;100522.22;;;17.04;100.00
56006;BME280;41888;44.696;10.522;2023-04-30T09:14:08;100524.97;;;16.93;100.00
56006;BME280;41888;44.696;10.522;2023-04-30T09:16:48;100524.97;;;16.93;100.00
56006;BME280;41888;44.696;10.522;2023-04-30T09:19:25;100514.72;;;17.06;100.00
56006;BME280;41888;44.696;10.522;2023-04-30T09:21:52;100514.72;;;17.06;100.00
56006;BME280;41888;44.696;10.522;2023-04-30T09:24:19;100522.00;;;17.61;100.00
56006;BME280;41888;44.696;10.522;2023-04-30T09:26:46;100526.69;;;17.15;100.00
56006;BME280;41888;44.696;10.522;2023-04-30T09:29:12;100511.84;;;17.29;100.00
56006;BME280;41888;44.696;10.522;2023-04-30T09:31:44;100513.06;;;17.39;100.00
56006;BME280;41888;44.696;10.522;2023-04-30T09:34:11;100523.59;;;17.79;100.00
56006;BME280;41888;44.696;10.522;2023-04-30T09:36:37;100511.88;;;17.68;100.00
56006;BME280;41888;44.696;10.522;2023-04-30T09:39:17;100524.97;;;17.81;100.00
56006;BME280;41888;44.696;10.522;2023-04-30T09:41:43;100522.25;;;18.25;100.00
56006;BME280;41888;44.696;10.522;2023-04-30T09:44:29;100525.22;;;18.01;100.00
56006;BME280;41888;44.696;10.522;2023-04-30T09:46:56;100519.50;;;17.98;100.00
56006;BME280;41888;44.696;10.522;2023-04-30T09:49:23;100513.88;;;18.48;100.00
56006;BME280;41888;44.696;10.522;2023-04-30T09:52:00;100521.47;;;18.78;100.00
56006;BME280;41888;44.696;10.522;2023-04-30T09:54:29;100515.69;;;18.96;100.00
56006;BME280;41888;44.696;10.522;2023-04-30T09:56:57;100529.41;;;18.14;100.00
56006;BME280;41888;44.696;10.522;2023-04-30T09:59:29;100521.28;;;18.58;100.00
56006;BME280;41888;44.696;10.522;2023-04-30T10:01:58;100517.28;;;18.38;100.00
56006;BME280;41888;44.696;10.522;2023-04-30T10:04:36;100517.09;;;19.04;100.00
56006;BME280;41888;44.696;10.522;2023-04-30T10:07:15;100516.81;;;18.46;100.00
56006;BME280;41888;44.696;10.522;2023-04-30T10:09:49;100510.38;;;18.47;100.00
56006;BME280;41888;44.696;10.522;2023-04-30T10:12:21;100512.22;;;18.20;100.00
56006;BME280;41888;44.696;10.522;2023-04-30T10:14:56;100504.91;;;18.64;100.00
56006;BME280;41888;44.696;10.522;2023-04-30T10:17:27;100509.22;;;18.38;100.00
56006;BME280;41888;44.696;10.522;2023-04-30T10:19:58;100512.63;;;18.29;100.00
56006;BME280;41888;44.696;10.522;2023-04-30T10:22:28;100507.88;;;18.41;100.00
56006;BME280;41888;44.696;10.522;2023-04-30T10:24:55;100501.41;;;18.64;100.00
56006;BME280;41888;44.696;10.522;2023-04-30T10:27:21;100499.19;;;18.07;100.00
56006;BME280;41888;44.696;10.522;2023-04-30T10:29:48;100491.88;;;18.29;100.00
56006;BME280;41888;44.696;10.522;2023-04-30T10:32:15;100494.34;;;18.36;100.00
56006;BME280;41888;44.696;10.522;2023-04-30T10:35:11;100482.47;;;18.32;100.00
56006;BME280;41888;44.696;10.522;2023-04-30T10:38:29;100482.84;;;18.45;100.00
56006;BME280;41888;44.696;10.522;2023-04-30T10:40:35;100486.88;;;18.43;100.00
56006;BME280;41888;44.696;10.522;2023-04-30T10:43:02;100487.88;;;18.59;100.00
56006;BME280;41888;44.696;10.522;2023-04-30T10:45:42;100483.38;;;18.69;100.00
56006;BME280;41888;44.696;10.522;2023-04-30T10:48:09;100480.41;;;18.39;100.00
56006;BME280;41888;44.696;10.522;2023-04-30T10:50:44;100475.81;;;18.39;100.00
56006;BME280;41888;44.696;10.522;2023-04-30T10:53:16;100475.88;;;18.18;100.00
56006;BME280;41888;44.696;10.522;2023-04-30T10:55:52;100477.31;;;18.03;100.00
56006;BME280;41888;44.696;10.522;2023-04-30T10:58:29;100483.72;;;17.97;100.00
56006;BME280;41888;44.696;10.522;2023-04-30T11:01:15;100475.19;;;18.05;100.00
56006;BME280;41888;44.696;10.522;2023-04-30T11:04:23;100478.88;;;17.99;100.00
56006;BME280;41888;44.696;10.522;2023-04-30T11:12:14;100471.03;;;18.46;100.00
56006;BME280;41888;44.696;10.522;2023-04-30T11:14:43;100465.00;;;18.61;100.00
56006;BME280;41888;44.696;10.522;2023-04-30T11:17:11;100470.97;;;18.68;100.00
56006;BME280;41888;44.696;10.522;2023-04-30T11:19:48;100464.94;;;18.56;100.00
56006;BME280;41888;44.696;10.522;2023-04-30T11:25:04;100454.38;;;18.81;100.00
56006;BME280;41888;44.696;10.522;2023-04-30T11:27:32;100452.50;;;19.19;100.00
56006;BME280;41888;44.696;10.522;2023-04-30T11:29:59;100453.53;;;19.13;100.00
56006;BME280;41888;44.696;10.522;2023-04-30T11:32:32;100452.13;;;18.68;100.00
56006;BME280;41888;44.696;10.522;2023-04-30T11:35:00;100450.06;;;18.80;100.00
56006;BME280;41888;44.696;10.522;2023-04-30T11:37:39;100452.78;;;18.85;100.00
56006;BME280;41888;44.696;10.522;2023-04-30T11:40:07;100443.97;;;18.95;100.00
56006;BME280;41888;44.696;10.522;2023-04-30T11:42:35;100437.44;;;18.86;100.00
56006;BME280;41888;44.696;10.522;2023-04-30T11:45:08;100428.84;;;19.41;100.00
56006;BME280;41888;44.696;10.522;2023-04-30T11:50:15;100432.38;;;18.99;100.00
56006;BME280;41888;44.696;10.522;2023-04-30T11:52:47;100442.84;;;18.91;100.00
56006;BME280;41888;44.696;10.522;2023-04-30T11:55:15;100437.78;;;18.99;100.00
56006;BME280;41888;44.696;10.522;2023-04-30T11:57:43;100437.56;;;19.06;100.00
56006;BME280;41888;44.696;10.522;2023-04-30T12:00:15;100434.09;;;19.11;100.00
56006;BME280;41888;44.696;10.522;2023-04-30T12:02:44;100432.06;;;19.33;100.00
56006;BME280;41888;44.696;10.522;2023-04-30T12:05:22;100431.91;;;19.08;100.00
56006;BME280;41888;44.696;10.522;2023-04-30T12:07:51;100438.19;;;19.18;100.00
56006;BME280;41888;44.696;10.522;2023-04-30T12:10:20;100434.59;;;19.03;100.00
56006;BME280;41888;44.696;10.522;2023-04-30T12:12:50;100433.34;;;18.83;100.00
56006;BME280;41888;44.696;10.522;2023-04-30T12:15:20;100435.47;;;18.76;100.00
56006;BME280;41888;44.696;10.522;2023-04-30T12:17:55;100432.72;;;18.66;100.00
56006;BME280;41888;44.696;10.522;2023-04-30T12:20:23;100431.53;;;18.57;100.00
56006;BME280;41888;44.696;10.522;2023-04-30T12:22:50;100436.47;;;18.65;100.00
56006;BME280;41888;44.696;10.522;2023-04-30T12:25:20;100430.75;;;18.62;100.00
56006;BME280;41888;44.696;10.522;2023-04-30T12:27:51;100418.47;;;18.44;100.00
56006;BME280;41888;44.696;10.522;2023-04-30T12:30:26;100421.41;;;18.42;100.00
56006;BME280;41888;44.696;10.522;2023-04-30T12:32:55;100427.09;;;18.46;100.00
56006;BME280;41888;44.696;10.522;2023-04-30T12:35:23;100421.50;;;18.52;100.00
56006;BME280;41888;44.696;10.522;2023-04-30T12:37:52;100420.69;;;18.52;100.00
56006;BME280;41888;44.696;10.522;2023-04-30T12:40:20;100423.72;;;18.55;100.00
56006;BME280;41888;44.696;10.522;2023-04-30T12:42:47;100418.47;;;18.71;100.00
56006;BME280;41888;44.696;10.522;2023-04-30T12:48:12;100407.06;;;19.01;100.00
56006;BME280;41888;44.696;10.522;2023-04-30T12:50:38;100411.72;;;19.15;100.00
56006;BME280;41888;44.696;10.522;2023-04-30T12:53:05;100405.97;;;18.96;100.00
56006;BME280;41888;44.696;10.522;2023-04-30T12:55:33;100404.38;;;19.01;100.00
56006;BME280;41888;44.696;10.522;2023-04-30T12:58:06;100409.81;;;19.11;100.00
56006;BME280;41888;44.696;10.522;2023-04-30T13:00:49;100404.41;;;19.11;100.00
56006;BME280;41888;44.696;10.522;2023-04-30T13:03:18;100390.59;;;18.97;100.00
56006;BME280;41888;44.696;10.522;2023-04-30T13:05:50;100391.34;;;18.87;100.00
56006;BME280;41888;44.696;10.522;2023-04-30T13:08:17;100390.19;;;18.78;100.00
56006;BME280;41888;44.696;10.522;2023-04-30T13:10:44;100396.31;;;19.06;100.00
56006;BME280;41888;44.696;10.522;2023-04-30T13:13:13;100384.38;;;18.91;100.00